Time,TemperatureF,DewpointF,PressureIn,WindDirection,WindDirectionDegrees,WindSpeedMPH,WindSpeedGustMPH,Humidity,HourlyPrecipIn,Conditions,Clouds,dailyrainin,SoftwareType,DateUTC
2013-01-25 00:00:00,22.2,7.6,30.45,NNW,333,0.0,0.0,53,0.00,,,0.00,Wunderground v.1.15,2013-01-25 05:00:00,
2013-01-25 00:10:00,22.1,7.1,30.46,NNW,333,0.0,0.0,52,0.00,,,0.00,Wunderground v.1.15,2013-01-25 05:10:00,
2013-01-25 00:15:00,22.0,6.6,30.46,WNW,286,0.0,0.0,51,0.00,,,0.00,Wunderground v.1.15,2013-01-25 05:15:00,
2013-01-25 00:20:00,22.1,7.1,30.45,NW,308,0.0,0.0,52,0.00,,,0.00,Wunderground v.1.15,2013-01-25 05:20:00,
2013-01-25 00:25:00,22.1,7.6,30.46,NW,308,0.0,0.0,53,0.00,,,0.00,Wunderground v.1.15,2013-01-25 05:25:00,
2013-01-25 00:30:00,22.0,7.0,30.46,NNW,336,0.0,0.0,52,0.00,,,0.00,Wunderground v.1.15,2013-01-25 05:30:00,
2013-01-25 00:35:00,22.0,7.0,30.45,NNW,334,0.0,0.0,52,0.00,,,0.00,Wunderground v.1.15,2013-01-25 05:35:00,
2013-01-25 00:40:00,22.0,7.0,30.45,NNW,336,0.0,0.0,52,0.00,,,0.00,Wunderground v.1.15,2013-01-25 05:40:00,
2013-01-25 00:50:00,21.8,8.1,30.45,NNW,336,0.0,0.0,55,0.00,,,0.00,Wunderground v.1.15,2013-01-25 05:50:00,
2013-01-25 00:55:00,21.7,7.2,30.44,NNW,336,0.0,0.0,53,0.00,,,0.00,Wunderground v.1.15,2013-01-25 05:55:00,
2013-01-25 01:00:00,21.6,7.5,30.45,NNW,336,0.0,2.0,54,0.00,,,0.00,Wunderground v.1.15,2013-01-25 06:00:00,
2013-01-25 01:05:00,21.6,7.5,30.45,NNW,336,0.0,2.0,54,0.00,,,0.00,Wunderground v.1.15,2013-01-25 06:05:00,
2013-01-25 01:10:00,21.6,7.5,30.46,NNW,336,0.0,2.0,54,0.00,,,0.00,Wunderground v.1.15,2013-01-25 06:10:00,
2013-01-25 01:20:00,21.5,7.4,30.46,NNW,336,0.0,2.0,54,0.00,,,0.00,Wunderground v.1.15,2013-01-25 06:20:00,
2013-01-25 01:25:00,21.4,7.3,30.46,NNW,336,0.0,2.0,54,0.00,,,0.00,Wunderground v.1.15,2013-01-25 06:25:00,
2013-01-25 01:30:00,21.3,6.8,30.47,NNW,336,0.0,2.0,53,0.00,,,0.00,Wunderground v.1.15,2013-01-25 06:30:00,
2013-01-25 01:35:00,21.2,7.1,30.47,NNW,336,0.0,2.0,54,0.00,,,0.00,Wunderground v.1.15,2013-01-25 06:35:00,
2013-01-25 01:40:00,21.1,7.8,30.47,NNW,336,0.0,2.0,56,0.00,,,0.00,Wunderground v.1.15,2013-01-25 06:40:00,
2013-01-25 01:45:00,21.0,7.3,30.47,NNW,336,0.0,2.0,55,0.00,,,0.00,Wunderground v.1.15,2013-01-25 06:45:00,
2013-01-25 01:55:00,20.7,7.9,30.47,NNW,336,0.0,2.0,57,0.00,,,0.00,Wunderground v.1.15,2013-01-25 06:55:00,
2013-01-25 02:00:00,20.5,7.7,30.46,NNW,336,0.0,2.0,57,0.00,,,0.00,Wunderground v.1.15,2013-01-25 07:00:00,
2013-01-25 02:05:00,20.3,7.5,30.46,NNW,336,0.0,2.0,57,0.00,,,0.00,Wunderground v.1.15,2013-01-25 07:05:00,
2013-01-25 02:10:00,20.2,8.1,30.46,NNW,336,0.0,2.0,59,0.00,,,0.00,Wunderground v.1.15,2013-01-25 07:10:00,
2013-01-25 02:15:00,20.1,7.7,30.45,NNW,336,0.0,2.0,58,0.00,,,0.00,Wunderground v.1.15,2013-01-25 07:15:00,
2013-01-25 02:25:00,19.8,7.8,30.45,NNW,336,0.0,2.0,59,0.00,,,0.00,Wunderground v.1.15,2013-01-25 07:25:00,
2013-01-25 02:30:00,19.7,8.0,30.45,NNW,336,0.0,2.0,60,0.00,,,0.00,Wunderground v.1.15,2013-01-25 07:30:00,
2013-01-25 02:35:00,19.6,8.0,30.44,NNW,336,0.0,2.0,60,0.00,,,0.00,Wunderground v.1.15,2013-01-25 07:35:00,
2013-01-25 02:40:00,19.5,8.2,30.44,NNW,336,0.0,2.0,61,0.00,,,0.00,Wunderground v.1.15,2013-01-25 07:40:00,
2013-01-25 02:45:00,19.4,7.8,30.45,NNW,336,0.0,2.0,60,0.00,,,0.00,Wunderground v.1.15,2013-01-25 07:45:00,
2013-01-25 02:50:00,19.4,7.8,30.44,NNW,336,0.0,2.0,60,0.00,,,0.00,Wunderground v.1.15,2013-01-25 07:50:00,
2013-01-25 02:55:00,19.3,7.7,30.44,NNW,336,0.0,2.0,60,0.00,,,0.00,Wunderground v.1.15,2013-01-25 07:55:00,
2013-01-25 03:00:00,19.3,8.0,30.45,NNW,336,0.0,0.0,61,0.00,,,0.00,Wunderground v.1.15,2013-01-25 08:00:00,
2013-01-25 03:10:00,19.3,8.8,30.43,NNW,336,0.0,0.0,63,0.00,,,0.00,Wunderground v.1.15,2013-01-25 08:10:00,
2013-01-25 03:15:00,19.2,8.7,30.43,NNW,336,0.0,0.0,63,0.00,,,0.00,Wunderground v.1.15,2013-01-25 08:15:00,
2013-01-25 03:20:00,19.3,8.8,30.44,NNW,336,0.0,0.0,63,0.00,,,0.00,Wunderground v.1.15,2013-01-25 08:20:00,
2013-01-25 03:25:00,19.3,9.1,30.45,NNW,336,0.0,0.0,64,0.00,,,0.00,Wunderground v.1.15,2013-01-25 08:25:00,
2013-01-25 03:30:00,19.3,9.1,30.44,NNW,336,0.0,0.0,64,0.00,,,0.00,Wunderground v.1.15,2013-01-25 08:30:00,
2013-01-25 03:35:00,19.3,9.1,30.44,NNW,336,0.0,0.0,64,0.00,,,0.00,Wunderground v.1.15,2013-01-25 08:35:00,
2013-01-25 03:40:00,19.4,9.2,30.43,NNW,336,0.0,0.0,64,0.00,,,0.00,Wunderground v.1.15,2013-01-25 08:40:00,
2013-01-25 03:45:00,19.5,9.3,30.43,NNW,336,0.0,0.0,64,0.00,,,0.00,Wunderground v.1.15,2013-01-25 08:45:00,
2013-01-25 03:50:00,19.6,9.4,30.43,NNW,336,0.0,0.0,64,0.00,,,0.00,Wunderground v.1.15,2013-01-25 08:50:00,
2013-01-25 04:00:00,19.8,9.2,30.44,NNW,336,0.0,0.0,63,0.00,,,0.00,Wunderground v.1.15,2013-01-25 09:00:00,
2013-01-25 04:05:00,20.0,9.4,30.44,NNW,336,0.0,0.0,63,0.00,,,0.00,Wunderground v.1.15,2013-01-25 09:05:00,
2013-01-25 04:10:00,20.2,9.2,30.44,NNW,336,0.0,0.0,62,0.00,,,0.00,Wunderground v.1.15,2013-01-25 09:10:00,
2013-01-25 04:15:00,20.3,9.3,30.43,NNW,336,0.0,0.0,62,0.00,,,0.00,Wunderground v.1.15,2013-01-25 09:15:00,
2013-01-25 04:20:00,20.6,9.3,30.43,NNW,336,0.0,0.0,61,0.00,,,0.00,Wunderground v.1.15,2013-01-25 09:20:00,
2013-01-25 04:25:00,20.9,8.8,30.43,NNW,336,0.0,0.0,59,0.00,,,0.00,Wunderground v.1.15,2013-01-25 09:25:00,
2013-01-25 04:35:00,21.3,9.2,30.41,NNW,336,0.0,0.0,59,0.00,,,0.00,Wunderground v.1.15,2013-01-25 09:35:00,
2013-01-25 04:40:00,21.4,8.1,30.41,NNW,333,0.0,0.0,56,0.00,,,0.00,Wunderground v.1.15,2013-01-25 09:40:00,
2013-01-25 04:45:00,21.6,8.7,30.42,NNW,333,0.0,0.0,57,0.00,,,0.00,Wunderground v.1.15,2013-01-25 09:45:00,
2013-01-25 04:50:00,21.7,8.4,30.41,NNW,333,0.0,0.0,56,0.00,,,0.00,Wunderground v.1.15,2013-01-25 09:50:00,
2013-01-25 04:55:00,21.8,8.1,30.41,NNW,333,0.0,0.0,55,0.00,,,0.00,Wunderground v.1.15,2013-01-25 09:55:00,
2013-01-25 05:05:00,22.0,8.7,30.40,NNW,333,0.0,0.0,56,0.00,,,0.00,Wunderground v.1.15,2013-01-25 10:05:00,
2013-01-25 05:10:00,22.0,8.7,30.40,NNW,333,0.0,0.0,56,0.00,,,0.00,Wunderground v.1.15,2013-01-25 10:10:00,
2013-01-25 05:15:00,22.0,8.3,30.41,NNW,333,0.0,0.0,55,0.00,,,0.00,Wunderground v.1.15,2013-01-25 10:15:00,
2013-01-25 05:20:00,22.1,8.4,30.40,NNW,333,0.0,0.0,55,0.00,,,0.00,Wunderground v.1.15,2013-01-25 10:20:00,
2013-01-25 05:25:00,22.1,8.0,30.41,WNW,298,0.0,0.0,54,0.00,,,0.00,Wunderground v.1.15,2013-01-25 10:25:00,
2013-01-25 05:30:00,22.1,8.0,30.40,NNW,346,1.0,1.0,54,0.00,,,0.00,Wunderground v.1.15,2013-01-25 10:30:00,
2013-01-25 05:40:00,22.2,8.1,30.39,North,350,0.0,1.0,54,0.00,,,0.00,Wunderground v.1.15,2013-01-25 10:40:00,
2013-01-25 05:45:00,22.2,8.1,30.40,NW,311,0.0,1.0,54,0.00,,,0.00,Wunderground v.1.15,2013-01-25 10:45:00,
2013-01-25 05:50:00,22.2,7.6,30.40,North,355,0.0,0.0,53,0.00,,,0.00,Wunderground v.1.15,2013-01-25 10:50:00,
2013-01-25 05:55:00,22.2,7.6,30.39,North,355,0.0,1.0,53,0.00,,,0.00,Wunderground v.1.15,2013-01-25 10:55:00,
2013-01-25 06:00:00,22.2,7.2,30.39,WNW,288,0.0,0.0,52,0.00,,,0.00,Wunderground v.1.15,2013-01-25 11:00:00,
2013-01-25 06:10:00,22.2,7.2,30.39,North,355,1.0,1.0,52,0.00,,,0.00,Wunderground v.1.15,2013-01-25 11:10:00,
2013-01-25 06:15:00,22.2,7.6,30.39,West,265,0.0,1.0,53,0.00,,,0.00,Wunderground v.1.15,2013-01-25 11:15:00,
2013-01-25 06:20:00,22.3,7.7,30.39,NE,38,0.0,0.0,53,0.00,,,0.00,Wunderground v.1.15,2013-01-25 11:20:00,
2013-01-25 06:25:00,22.3,7.3,30.39,WNW,292,1.0,2.0,52,0.00,,,0.00,Wunderground v.1.15,2013-01-25 11:25:00,
2013-01-25 06:30:00,22.4,7.8,30.39,WNW,302,1.0,1.0,53,0.00,,,0.00,Wunderground v.1.15,2013-01-25 11:30:00,
2013-01-25 06:35:00,22.4,7.8,30.38,WNW,288,0.0,3.0,53,0.00,,,0.00,Wunderground v.1.15,2013-01-25 11:35:00,
2013-01-25 06:45:00,22.4,7.8,30.39,NW,326,1.0,1.0,53,0.00,,,0.00,Wunderground v.1.15,2013-01-25 11:45:00,
2013-01-25 06:50:00,22.4,7.8,30.38,NNW,334,1.0,1.0,53,0.00,,,0.00,Wunderground v.1.15,2013-01-25 11:50:00,
2013-01-25 06:55:00,22.4,8.2,30.40,West,260,1.0,1.0,54,0.00,,,0.00,Wunderground v.1.15,2013-01-25 11:55:00,
2013-01-25 07:00:00,22.4,8.7,30.40,West,263,0.0,3.0,55,0.00,,,0.00,Wunderground v.1.15,2013-01-25 12:00:00,
2013-01-25 07:05:00,22.4,8.7,30.38,West,263,0.0,3.0,55,0.00,,,0.00,Wunderground v.1.15,2013-01-25 12:05:00,
2013-01-25 07:15:00,22.4,8.7,30.39,WNW,285,0.0,3.0,55,0.00,,,0.00,Wunderground v.1.15,2013-01-25 12:15:00,
2013-01-25 07:20:00,22.5,8.3,30.39,West,281,0.0,3.0,54,0.00,,,0.00,Wunderground v.1.15,2013-01-25 12:20:00,
2013-01-25 07:25:00,22.5,9.1,30.39,West,279,0.0,3.0,56,0.00,,,0.00,Wunderground v.1.15,2013-01-25 12:25:00,
2013-01-25 07:30:00,22.6,9.6,30.38,West,279,0.0,3.0,57,0.00,,,0.00,Wunderground v.1.15,2013-01-25 12:30:00,
2013-01-25 07:35:00,22.7,8.9,30.38,West,279,0.0,3.0,55,0.00,,,0.00,Wunderground v.1.15,2013-01-25 12:35:00,
2013-01-25 07:40:00,22.7,8.9,30.39,West,279,0.0,3.0,55,0.00,,,0.00,Wunderground v.1.15,2013-01-25 12:40:00,
2013-01-25 07:45:00,22.6,8.4,30.39,West,279,0.0,3.0,54,0.00,,,0.00,Wunderground v.1.15,2013-01-25 12:45:00,
2013-01-25 07:50:00,22.6,8.4,30.39,West,279,0.0,3.0,54,0.00,,,0.00,Wunderground v.1.15,2013-01-25 12:50:00,
2013-01-25 07:55:00,22.7,8.5,30.38,West,279,0.0,3.0,54,0.00,,,0.00,Wunderground v.1.15,2013-01-25 12:55:00,
2013-01-25 08:00:00,22.7,8.1,30.38,WSW,256,0.0,3.0,53,0.00,,,0.00,Wunderground v.1.15,2013-01-25 13:00:00,
2013-01-25 08:05:00,22.8,7.8,30.38,NW,321,0.0,3.0,52,0.00,,,0.00,Wunderground v.1.15,2013-01-25 13:05:00,
2013-01-25 08:10:00,22.8,6.9,30.38,WNW,294,0.0,3.0,50,0.00,,,0.00,Wunderground v.1.15,2013-01-25 13:10:00,
2013-01-25 08:20:00,22.9,7.0,30.38,WNW,296,0.0,3.0,50,0.00,,,0.00,Wunderground v.1.15,2013-01-25 13:20:00,
2013-01-25 08:25:00,22.9,7.0,30.37,NW,305,0.0,3.0,50,0.00,,,0.00,Wunderground v.1.15,2013-01-25 13:25:00,
2013-01-25 08:30:00,23.0,7.5,30.38,West,260,1.0,1.0,51,0.00,,,0.00,Wunderground v.1.15,2013-01-25 13:30:00,
2013-01-25 08:35:00,23.0,7.5,30.38,West,272,1.0,3.0,51,0.00,,,0.00,Wunderground v.1.15,2013-01-25 13:35:00,
2013-01-25 08:40:00,23.0,7.5,30.38,West,272,1.0,3.0,51,0.00,,,0.00,Wunderground v.1.15,2013-01-25 13:40:00,
2013-01-25 08:50:00,22.9,7.0,30.38,NNW,327,1.0,3.0,50,0.00,,,0.00,Wunderground v.1.15,2013-01-25 13:50:00,
2013-01-25 08:55:00,22.7,7.3,30.38,NW,313,1.0,3.0,51,0.00,,,0.00,Wunderground v.1.15,2013-01-25 13:55:00,
2013-01-25 09:00:00,22.8,7.4,30.38,WNW,288,1.0,1.0,51,0.00,,,0.00,Wunderground v.1.15,2013-01-25 14:00:00,
2013-01-25 09:10:00,22.6,7.2,30.39,WNW,288,1.0,1.0,51,0.00,,,0.00,Wunderground v.1.15,2013-01-25 14:10:00,
2013-01-25 09:15:00,22.6,8.0,30.38,WNW,288,1.0,3.0,53,0.00,,,0.00,Wunderground v.1.15,2013-01-25 14:15:00,
2013-01-25 09:25:00,22.6,10.0,30.38,WNW,302,0.0,1.0,58,0.00,,,0.00,Wunderground v.1.15,2013-01-25 14:25:00,
2013-01-25 09:30:00,22.5,9.9,30.38,WNW,283,0.0,0.0,58,0.00,,,0.00,Wunderground v.1.15,2013-01-25 14:30:00,
2013-01-25 09:35:00,22.4,10.2,30.38,West,279,0.0,0.0,59,0.00,,,0.00,Wunderground v.1.15,2013-01-25 14:35:00,
2013-01-25 09:40:00,22.4,11.0,30.38,West,279,0.0,2.0,61,0.00,,,0.00,Wunderground v.1.15,2013-01-25 14:40:00,
2013-01-25 09:45:00,22.3,11.6,30.37,West,279,0.0,2.0,63,0.00,,,0.00,Wunderground v.1.15,2013-01-25 14:45:00,
2013-01-25 09:55:00,22.2,11.9,30.37,NW,310,0.0,1.0,64,0.00,,,0.00,Wunderground v.1.15,2013-01-25 14:55:00,
2013-01-25 10:00:00,22.2,12.2,30.37,NW,310,0.0,3.0,65,0.00,,,0.00,Wunderground v.1.15,2013-01-25 15:00:00,
2013-01-25 10:05:00,22.3,13.0,30.37,WNW,288,0.0,3.0,67,0.00,,,0.00,Wunderground v.1.15,2013-01-25 15:05:00,
2013-01-25 10:10:00,22.2,13.2,30.36,WNW,288,0.0,3.0,68,0.00,,,0.00,Wunderground v.1.15,2013-01-25 15:10:00,
2013-01-25 10:15:00,22.0,13.4,30.36,WNW,294,1.0,3.0,69,0.00,,,0.00,Wunderground v.1.15,2013-01-25 15:15:00,
2013-01-25 10:20:00,22.0,13.7,30.36,WNW,294,1.0,1.0,70,0.00,,,0.00,Wunderground v.1.15,2013-01-25 15:20:00,
2013-01-25 10:30:00,22.0,13.7,30.36,WNW,294,1.0,1.0,70,0.00,,,0.00,Wunderground v.1.15,2013-01-25 15:30:00,
2013-01-25 10:35:00,21.9,13.3,30.36,West,260,1.0,2.0,69,0.00,,,0.00,Wunderground v.1.15,2013-01-25 15:35:00,
2013-01-25 10:40:00,21.8,13.2,30.36,West,265,2.0,2.0,69,0.00,,,0.00,Wunderground v.1.15,2013-01-25 15:40:00,
2013-01-25 10:45:00,21.8,13.5,30.35,West,265,1.0,3.0,70,0.00,,,0.00,Wunderground v.1.15,2013-01-25 15:45:00,
2013-01-25 10:50:00,22.0,13.4,30.35,WSW,257,0.0,3.0,69,0.00,,,0.00,Wunderground v.1.15,2013-01-25 15:50:00,
2013-01-25 11:00:00,22.0,13.4,30.34,WNW,288,1.0,1.0,69,0.00,,,0.00,Wunderground v.1.15,2013-01-25 16:00:00,
2013-01-25 11:05:00,22.1,13.5,30.35,NNW,337,0.0,2.0,69,0.00,,,0.00,Wunderground v.1.15,2013-01-25 16:05:00,
2013-01-25 11:10:00,22.3,14.3,30.33,NNW,337,0.0,3.0,71,0.00,,,0.00,Wunderground v.1.15,2013-01-25 16:10:00,
2013-01-25 11:15:00,22.3,13.7,30.34,West,280,0.0,3.0,69,0.00,,,0.00,Wunderground v.1.15,2013-01-25 16:15:00,
2013-01-25 11:20:00,22.3,13.7,30.34,West,280,0.0,3.0,69,0.00,,,0.00,Wunderground v.1.15,2013-01-25 16:20:00,
2013-01-25 11:25:00,22.4,13.8,30.33,West,280,0.0,3.0,69,0.00,,,0.00,Wunderground v.1.15,2013-01-25 16:25:00,
2013-01-25 11:35:00,22.4,14.1,30.32,NNW,328,0.0,3.0,70,0.00,,,0.00,Wunderground v.1.15,2013-01-25 16:35:00,
2013-01-25 11:40:00,22.3,14.6,30.32,NNW,328,0.0,3.0,72,0.00,,,0.00,Wunderground v.1.15,2013-01-25 16:40:00,
2013-01-25 11:45:00,22.4,14.7,30.32,NNW,328,0.0,3.0,72,0.00,,,0.00,Wunderground v.1.15,2013-01-25 16:45:00,
2013-01-25 11:50:00,22.3,14.6,30.32,NNW,328,0.0,3.0,72,0.00,,,0.00,Wunderground v.1.15,2013-01-25 16:50:00,
2013-01-25 11:55:00,22.3,14.6,30.29,NNW,328,0.0,3.0,72,0.00,,,0.00,Wunderground v.1.15,2013-01-25 16:55:00,
2013-01-25 12:00:00,22.2,14.9,30.30,NNW,328,0.0,0.0,73,0.00,,,0.00,Wunderground v.1.15,2013-01-25 17:00:00,
2013-01-25 12:10:00,22.1,14.4,30.29,NNW,328,0.0,0.0,72,0.00,,,0.00,Wunderground v.1.15,2013-01-25 17:10:00,
2013-01-25 12:15:00,22.2,14.9,30.28,NNW,328,0.0,0.0,73,0.00,,,0.00,Wunderground v.1.15,2013-01-25 17:15:00,
2013-01-25 12:20:00,22.3,15.0,30.28,NNW,328,0.0,0.0,73,0.00,,,0.00,Wunderground v.1.15,2013-01-25 17:20:00,
2013-01-25 12:25:00,22.5,15.1,30.27,NNW,328,0.0,0.0,73,0.00,,,0.00,Wunderground v.1.15,2013-01-25 17:25:00,
2013-01-25 12:30:00,22.7,15.3,30.27,NNW,328,0.0,0.0,73,0.00,,,0.00,Wunderground v.1.15,2013-01-25 17:30:00,
2013-01-25 12:40:00,22.9,15.5,30.26,NNW,328,0.0,0.0,73,0.00,,,0.00,Wunderground v.1.15,2013-01-25 17:40:00,
2013-01-25 12:45:00,22.9,15.5,30.26,NE,36,0.0,3.0,73,0.00,,,0.00,Wunderground v.1.15,2013-01-25 17:45:00,
2013-01-25 12:50:00,22.8,15.1,30.26,NE,36,0.0,0.0,72,0.00,,,0.00,Wunderground v.1.15,2013-01-25 17:50:00,
2013-01-25 12:55:00,22.8,15.1,30.26,NE,36,0.0,0.0,72,0.00,,,0.00,Wunderground v.1.15,2013-01-25 17:55:00,
2013-01-25 13:00:00,22.7,14.4,30.25,NE,36,0.0,1.0,70,0.00,,,0.00,Wunderground v.1.15,2013-01-25 18:00:00,
2013-01-25 13:10:00,22.5,13.5,30.24,NE,36,0.0,1.0,68,0.00,,,0.00,Wunderground v.1.15,2013-01-25 18:10:00,
2013-01-25 13:15:00,22.6,12.2,30.24,NE,36,0.0,1.0,64,0.00,,,0.00,Wunderground v.1.15,2013-01-25 18:15:00,
2013-01-25 13:20:00,22.6,11.9,30.23,NE,36,0.0,1.0,63,0.00,,,0.00,Wunderground v.1.15,2013-01-25 18:20:00,
2013-01-25 13:25:00,22.7,10.1,30.23,NE,36,0.0,1.0,58,0.00,,,0.00,Wunderground v.1.15,2013-01-25 18:25:00,
2013-01-25 13:30:00,22.9,10.3,30.23,NE,36,0.0,1.0,58,0.00,,,0.00,Wunderground v.1.15,2013-01-25 18:30:00,
2013-01-25 13:35:00,22.8,9.8,30.23,NE,36,0.0,1.0,57,0.00,,,0.00,Wunderground v.1.15,2013-01-25 18:35:00,
2013-01-25 13:45:00,23.0,7.5,30.21,NE,36,0.0,1.0,51,0.00,,,0.00,Wunderground v.1.15,2013-01-25 18:45:00,
2013-01-25 13:50:00,23.1,7.2,30.20,NE,36,1.0,1.0,50,0.00,,,0.00,Wunderground v.1.15,2013-01-25 18:50:00,
2013-01-25 13:55:00,23.2,5.9,30.21,NE,36,0.0,1.0,47,0.00,,,0.00,Wunderground v.1.15,2013-01-25 18:55:00,
2013-01-25 14:00:00,23.3,4.6,30.20,NE,36,0.0,1.0,44,0.00,,,0.00,Wunderground v.1.15,2013-01-25 19:00:00,
2013-01-25 14:05:00,23.6,3.3,30.20,NE,36,0.0,1.0,41,0.00,,,0.00,Wunderground v.1.15,2013-01-25 19:05:00,
2013-01-25 14:10:00,23.8,3.0,30.20,NE,36,0.0,1.0,40,0.00,,,0.00,Wunderground v.1.15,2013-01-25 19:10:00,
2013-01-25 14:15:00,24.2,1.6,30.19,NE,36,0.0,1.0,37,0.00,,,0.00,Wunderground v.1.15,2013-01-25 19:15:00,
2013-01-25 14:20:00,24.5,1.9,30.19,NE,49,0.0,1.0,37,0.00,,,0.00,Wunderground v.1.15,2013-01-25 19:20:00,
2013-01-25 14:25:00,24.9,1.7,30.18,NE,45,0.0,1.0,36,0.00,,,0.00,Wunderground v.1.15,2013-01-25 19:25:00,
2013-01-25 14:30:00,24.9,5.5,30.18,NE,49,1.0,2.0,43,0.00,,,0.00,Wunderground v.1.15,2013-01-25 19:30:00,
2013-01-25 14:35:00,25.1,3.6,30.18,NE,49,1.0,2.0,39,0.00,,,0.00,Wunderground v.1.15,2013-01-25 19:35:00,
2013-01-25 14:45:00,25.7,3.0,30.16,NE,35,1.0,2.0,37,0.00,,,0.00,Wunderground v.1.15,2013-01-25 19:45:00,
2013-01-25 14:50:00,25.8,3.6,30.15,NE,44,1.0,1.0,38,0.00,,,0.00,Wunderground v.1.15,2013-01-25 19:50:00,
2013-01-25 14:55:00,25.9,4.3,30.15,NE,34,1.0,1.0,39,0.00,,,0.00,Wunderground v.1.15,2013-01-25 19:55:00,
2013-01-25 15:00:00,25.8,6.3,30.15,NE,42,1.0,1.0,43,0.00,,,0.00,Wunderground v.1.15,2013-01-25 20:00:00,
2013-01-25 15:10:00,26.0,3.8,30.16,NE,47,1.0,1.0,38,0.00,,,0.00,Wunderground v.1.15,2013-01-25 20:10:00,
2013-01-25 15:20:00,26.4,3.0,30.15,NE,47,0.0,0.0,36,0.00,,,0.00,Wunderground v.1.15,2013-01-25 20:20:00,
2013-01-25 15:25:00,26.7,2.0,30.15,NE,47,0.0,0.0,34,0.00,,,0.00,Wunderground v.1.15,2013-01-25 20:25:00,
2013-01-25 15:30:00,26.9,1.6,30.14,NE,47,0.0,1.0,33,0.00,,,0.00,Wunderground v.1.15,2013-01-25 20:30:00,
2013-01-25 15:35:00,27.1,1.8,30.13,NE,47,0.0,1.0,33,0.00,,,0.00,Wunderground v.1.15,2013-01-25 20:35:00,
2013-01-25 15:40:00,27.3,1.9,30.13,NE,47,0.0,0.0,33,0.00,,,0.00,Wunderground v.1.15,2013-01-25 20:40:00,
2013-01-25 15:50:00,27.8,1.0,30.13,NNE,30,0.0,2.0,31,0.00,,,0.00,Wunderground v.1.15,2013-01-25 20:50:00,
2013-01-25 15:55:00,28.0,2.6,30.12,NE,44,1.0,2.0,33,0.00,,,0.00,Wunderground v.1.15,2013-01-25 20:55:00,
2013-01-25 16:00:00,28.1,3.3,30.12,NE,44,1.0,4.0,34,0.00,,,0.00,Wunderground v.1.15,2013-01-25 21:00:00,
2013-01-25 16:05:00,28.2,4.0,30.12,NE,44,1.0,4.0,35,0.00,,,0.00,Wunderground v.1.15,2013-01-25 21:05:00,
2013-01-25 16:10:00,28.3,3.5,30.12,NE,45,1.0,1.0,34,0.00,,,0.00,Wunderground v.1.15,2013-01-25 21:10:00,
2013-01-25 16:15:00,28.4,4.2,30.13,NE,36,1.0,5.0,35,0.00,,,0.00,Wunderground v.1.15,2013-01-25 21:15:00,
2013-01-25 16:25:00,28.7,3.8,30.12,NE,37,0.0,4.0,34,0.00,,,0.00,Wunderground v.1.15,2013-01-25 21:25:00,
2013-01-25 16:30:00,28.8,3.9,30.12,NE,37,0.0,4.0,34,0.00,,,0.00,Wunderground v.1.15,2013-01-25 21:30:00,
2013-01-25 16:35:00,28.9,4.6,30.12,NE,37,0.0,4.0,35,0.00,,,0.00,Wunderground v.1.15,2013-01-25 21:35:00,
2013-01-25 16:40:00,28.9,5.8,30.11,NE,37,0.0,4.0,37,0.00,,,0.00,Wunderground v.1.15,2013-01-25 21:40:00,
2013-01-25 16:45:00,29.0,5.9,30.12,NE,37,0.0,4.0,37,0.00,,,0.00,Wunderground v.1.15,2013-01-25 21:45:00,
2013-01-25 16:55:00,29.2,6.1,30.11,NE,37,0.0,4.0,37,0.00,,,0.00,Wunderground v.1.15,2013-01-25 21:55:00,
2013-01-25 17:00:00,29.3,6.2,30.11,NE,37,0.0,4.0,37,0.00,,,0.00,Wunderground v.1.15,2013-01-25 22:00:00,
2013-01-25 17:05:00,29.4,5.1,30.11,NE,37,0.0,4.0,35,0.00,,,0.00,Wunderground v.1.15,2013-01-25 22:05:00,
2013-01-25 17:10:00,29.4,5.7,30.11,NE,37,0.0,4.0,36,0.00,,,0.00,Wunderground v.1.15,2013-01-25 22:10:00,
2013-01-25 17:15:00,29.5,7.0,30.11,NE,37,0.0,4.0,38,0.00,,,0.00,Wunderground v.1.15,2013-01-25 22:15:00,
2013-01-25 17:20:00,29.5,7.5,30.11,NE,37,0.0,4.0,39,0.00,,,0.00,Wunderground v.1.15,2013-01-25 22:20:00,
2013-01-25 17:30:00,29.6,7.1,30.11,NE,37,0.0,4.0,38,0.00,,,0.00,Wunderground v.1.15,2013-01-25 22:30:00,
2013-01-25 17:35:00,29.6,6.5,30.11,NE,37,0.0,4.0,37,0.00,,,0.00,Wunderground v.1.15,2013-01-25 22:35:00,
2013-01-25 17:40:00,29.6,7.1,30.11,NE,37,0.0,4.0,38,0.00,,,0.00,Wunderground v.1.15,2013-01-25 22:40:00,
2013-01-25 17:45:00,29.7,6.6,30.11,NE,37,0.0,4.0,37,0.00,,,0.00,Wunderground v.1.15,2013-01-25 22:45:00,
2013-01-25 17:50:00,29.7,6.0,30.11,NE,37,0.0,4.0,36,0.00,,,0.00,Wunderground v.1.15,2013-01-25 22:50:00,
2013-01-25 18:00:00,29.7,6.6,30.12,NE,37,0.0,0.0,37,0.00,,,0.00,Wunderground v.1.15,2013-01-25 23:00:00,
2013-01-25 18:10:00,29.8,5.4,30.12,NE,37,0.0,0.0,35,0.00,,,0.00,Wunderground v.1.15,2013-01-25 23:10:00,
2013-01-25 18:15:00,29.8,6.1,30.12,NE,37,0.0,0.0,36,0.00,,,0.00,Wunderground v.1.15,2013-01-25 23:15:00,
2013-01-25 18:20:00,29.8,5.4,30.12,NE,37,0.0,0.0,35,0.00,,,0.00,Wunderground v.1.15,2013-01-25 23:20:00,
2013-01-25 18:25:00,29.8,6.1,30.12,NE,37,0.0,0.0,36,0.00,,,0.00,Wunderground v.1.15,2013-01-25 23:25:00,
2013-01-25 18:30:00,29.8,6.7,30.12,NE,37,0.0,0.0,37,0.00,,,0.00,Wunderground v.1.15,2013-01-25 23:30:00,
2013-01-25 18:35:00,29.8,5.4,30.12,NE,37,0.0,0.0,35,0.00,,,0.00,Wunderground v.1.15,2013-01-25 23:35:00,
2013-01-25 18:40:00,29.8,5.4,30.12,NE,37,0.0,0.0,35,0.00,,,0.00,Wunderground v.1.15,2013-01-25 23:40:00,
2013-01-25 18:45:00,29.9,4.9,30.12,NE,37,0.0,0.0,34,0.00,,,0.00,Wunderground v.1.15,2013-01-25 23:45:00,
2013-01-25 18:50:00,29.9,4.9,30.12,NE,37,0.0,1.0,34,0.00,,,0.00,Wunderground v.1.15,2013-01-25 23:50:00,
2013-01-25 19:00:00,30.1,3.7,30.12,NE,37,0.0,0.0,32,0.00,,,0.00,Wunderground v.1.15,2013-01-26 00:00:00,
2013-01-25 19:05:00,30.1,3.7,30.13,NE,37,0.0,0.0,32,0.00,,,0.00,Wunderground v.1.15,2013-01-26 00:05:00,
2013-01-25 19:10:00,30.2,3.1,30.12,NE,37,0.0,0.0,31,0.00,,,0.00,Wunderground v.1.15,2013-01-26 00:10:00,
2013-01-25 19:15:00,30.3,1.8,30.12,NE,37,0.0,0.0,29,0.00,,,0.00,Wunderground v.1.15,2013-01-26 00:15:00,
2013-01-25 19:20:00,30.6,-0.3,30.12,NE,37,0.0,0.0,26,0.00,,,0.00,Wunderground v.1.15,2013-01-26 00:20:00,
2013-01-25 19:25:00,31.0,-0.8,30.13,NE,37,0.0,0.0,25,0.00,,,0.00,Wunderground v.1.15,2013-01-26 00:25:00,
2013-01-25 19:35:00,31.9,0.0,30.13,West,269,1.0,3.0,25,0.00,,,0.00,Wunderground v.1.15,2013-01-26 00:35:00,
2013-01-25 19:40:00,32.1,1.0,30.13,West,269,1.0,2.0,26,0.00,,,0.00,Wunderground v.1.15,2013-01-26 00:40:00,
2013-01-25 19:45:00,32.3,2.8,30.12,WSW,254,1.0,2.0,28,0.00,,,0.00,Wunderground v.1.15,2013-01-26 00:45:00,
2013-01-25 19:50:00,32.4,3.6,30.13,WSW,254,1.0,1.0,29,0.00,,,0.00,Wunderground v.1.15,2013-01-26 00:50:00,
2013-01-25 19:55:00,32.4,3.6,30.13,WSW,254,1.0,1.0,29,0.00,,,0.00,Wunderground v.1.15,2013-01-26 00:55:00,
2013-01-25 20:00:00,32.5,4.4,30.13,WSW,254,1.0,1.0,30,0.00,,,0.00,Wunderground v.1.15,2013-01-26 01:00:00,
2013-01-25 20:10:00,32.5,4.4,30.13,WSW,254,1.0,1.0,30,0.00,,,0.00,Wunderground v.1.15,2013-01-26 01:10:00,
2013-01-25 20:15:00,32.5,4.4,30.13,WSW,254,1.0,1.0,30,0.00,,,0.00,Wunderground v.1.15,2013-01-26 01:15:00,
2013-01-25 20:20:00,32.5,3.7,30.13,WSW,254,0.0,0.0,29,0.00,,,0.00,Wunderground v.1.15,2013-01-26 01:20:00,
2013-01-25 20:25:00,32.5,3.7,30.13,WSW,254,0.0,1.0,29,0.00,,,0.00,Wunderground v.1.15,2013-01-26 01:25:00,
2013-01-25 20:30:00,32.6,3.0,30.14,WSW,254,0.0,1.0,28,0.00,,,0.00,Wunderground v.1.15,2013-01-26 01:30:00,
2013-01-25 20:40:00,32.7,3.1,30.13,WSW,254,0.0,0.0,28,0.00,,,0.00,Wunderground v.1.15,2013-01-26 01:40:00,
2013-01-25 20:45:00,32.7,3.1,30.13,WSW,254,0.0,0.0,28,0.00,,,0.00,Wunderground v.1.15,2013-01-26 01:45:00,
2013-01-25 20:50:00,32.8,2.4,30.13,WSW,254,0.0,0.0,27,0.00,,,0.00,Wunderground v.1.15,2013-01-26 01:50:00,
2013-01-25 20:55:00,32.9,2.5,30.14,WSW,254,0.0,1.0,27,0.00,,,0.00,Wunderground v.1.15,2013-01-26 01:55:00,
2013-01-25 21:00:00,32.9,2.5,30.14,WSW,253,1.0,1.0,27,0.00,,,0.00,Wunderground v.1.15,2013-01-26 02:00:00,
2013-01-25 21:10:00,32.9,2.5,30.14,WSW,253,1.0,1.0,27,0.00,,,0.00,Wunderground v.1.15,2013-01-26 02:10:00,
2013-01-25 21:15:00,32.9,1.7,30.13,WSW,253,0.0,1.0,26,0.00,,,0.00,Wunderground v.1.15,2013-01-26 02:15:00,
2013-01-25 21:20:00,32.9,1.7,30.13,WSW,253,0.0,2.0,26,0.00,,,0.00,Wunderground v.1.15,2013-01-26 02:20:00,
2013-01-25 21:25:00,32.9,0.9,30.13,WSW,253,0.0,2.0,25,0.00,,,0.00,Wunderground v.1.15,2013-01-26 02:25:00,
2013-01-25 21:30:00,32.9,0.9,30.14,WSW,253,0.0,0.0,25,0.00,,,0.00,Wunderground v.1.15,2013-01-26 02:30:00,
2013-01-25 21:35:00,32.9,0.9,30.13,WSW,253,0.0,0.0,25,0.00,,,0.00,Wunderground v.1.15,2013-01-26 02:35:00,
2013-01-25 21:45:00,33.0,0.1,30.14,WSW,253,0.0,1.0,24,0.00,,,0.00,Wunderground v.1.15,2013-01-26 02:45:00,
2013-01-25 21:50:00,33.0,-0.8,30.14,WSW,253,0.0,0.0,23,0.00,,,0.00,Wunderground v.1.15,2013-01-26 02:50:00,
2013-01-25 21:55:00,33.0,0.1,30.13,WSW,253,0.0,0.0,24,0.00,,,0.00,Wunderground v.1.15,2013-01-26 02:55:00,
2013-01-25 22:00:00,33.0,-0.8,30.13,WSW,253,0.0,2.0,23,0.00,,,0.00,Wunderground v.1.15,2013-01-26 03:00:00,
2013-01-25 22:05:00,33.0,-0.8,30.14,WSW,253,0.0,2.0,23,0.00,,,0.00,Wunderground v.1.15,2013-01-26 03:05:00,
2013-01-25 22:10:00,33.2,-1.6,30.14,WSW,253,0.0,2.0,22,0.00,,,0.00,Wunderground v.1.15,2013-01-26 03:10:00,
2013-01-25 22:15:00,33.4,-1.4,30.14,WSW,253,0.0,2.0,22,0.00,,,0.00,Wunderground v.1.15,2013-01-26 03:15:00,
2013-01-25 22:20:00,33.5,-1.4,30.13,WSW,253,0.0,2.0,22,0.00,,,0.00,Wunderground v.1.15,2013-01-26 03:20:00,
2013-01-25 22:30:00,33.7,-1.2,30.14,WSW,253,0.0,2.0,22,0.00,,,0.00,Wunderground v.1.15,2013-01-26 03:30:00,
2013-01-25 22:35:00,33.8,-1.1,30.13,SSW,198,0.0,2.0,22,0.00,,,0.00,Wunderground v.1.15,2013-01-26 03:35:00,
2013-01-25 22:40:00,34.0,-1.9,30.14,SSW,198,0.0,2.0,21,0.00,,,0.00,Wunderground v.1.15,2013-01-26 03:40:00,
2013-01-25 22:45:00,34.0,-0.9,30.14,SSW,198,0.0,2.0,22,0.00,,,0.00,Wunderground v.1.15,2013-01-26 03:45:00,
2013-01-25 22:50:00,34.2,-1.8,30.14,SSW,198,0.0,2.0,21,0.00,,,0.00,Wunderground v.1.15,2013-01-26 03:50:00,
2013-01-25 22:55:00,34.3,-1.7,30.14,SSW,198,0.0,2.0,21,0.00,,,0.00,Wunderground v.1.15,2013-01-26 03:55:00,
2013-01-25 23:00:00,34.5,-1.5,30.14,SSW,204,0.0,2.0,21,0.00,,,0.00,Wunderground v.1.15,2013-01-26 04:00:00,
2013-01-25 23:05:00,34.6,-1.4,30.14,SSW,204,0.0,2.0,21,0.00,,,0.00,Wunderground v.1.15,2013-01-26 04:05:00,
2013-01-25 23:10:00,34.7,-1.3,30.14,SSW,208,0.0,2.0,21,0.00,,,0.00,Wunderground v.1.15,2013-01-26 04:10:00,
2013-01-25 23:20:00,35.1,-1.0,30.14,South,176,0.0,2.0,21,0.00,,,0.00,Wunderground v.1.15,2013-01-26 04:20:00,
2013-01-25 23:25:00,35.2,-0.9,30.14,South,176,0.0,2.0,21,0.00,,,0.00,Wunderground v.1.15,2013-01-26 04:25:00,
2013-01-25 23:30:00,35.3,-0.8,30.14,South,176,0.0,2.0,21,0.00,,,0.00,Wunderground v.1.15,2013-01-26 04:30:00,
2013-01-25 23:35:00,35.5,-0.7,30.14,South,176,0.0,2.0,21,0.00,,,0.00,Wunderground v.1.15,2013-01-26 04:35:00,
2013-01-25 23:40:00,35.5,-0.7,30.14,South,176,0.0,2.0,21,0.00,,,0.00,Wunderground v.1.15,2013-01-26 04:40:00,
2013-01-25 23:45:00,35.6,-0.6,30.14,South,173,0.0,2.0,21,0.00,,,0.00,Wunderground v.1.15,2013-01-26 04:45:00,
2013-01-25 23:55:00,35.8,-0.4,30.14,South,173,0.0,2.0,21,0.00,,,0.00,Wunderground v.1.15,2013-01-26 04:55:00,